Time,TemperatureF,DewpointF,PressureIn,WindDirection,WindDirectionDegrees,WindSpeedMPH,WindSpeedGustMPH,Humidity,HourlyPrecipIn,Conditions,Clouds,dailyrainin,SoftwareType,DateUTC
2013-03-03 00:06:00,43.0,30.0,30.05,NNW,342,0.0,6.0,60,0.00,,,0.00,weatherlink.com 1.10,2013-03-03 05:06:00,
2013-03-03 00:21:00,42.9,30.0,30.05,NNW,336,1.0,6.0,60,0.00,,,0.00,weatherlink.com 1.10,2013-03-03 05:21:00,
2013-03-03 00:36:00,42.7,30.0,30.05,NNE,31,0.0,3.0,61,0.00,,,0.00,weatherlink.com 1.10,2013-03-03 05:36:00,
2013-03-03 00:51:00,42.4,30.0,30.05,NNW,333,0.0,1.0,63,0.00,,,0.00,weatherlink.com 1.10,2013-03-03 05:51:00,
2013-03-03 01:07:00,42.4,31.0,30.05,West,259,3.0,3.0,65,0.00,,,0.00,weatherlink.com 1.10,2013-03-03 06:07:00,
2013-03-03 01:22:00,42.3,31.0,30.05,West,270,0.0,4.0,64,0.00,,,0.00,weatherlink.com 1.10,2013-03-03 06:22:00,
2013-03-03 01:37:00,42.2,30.0,30.05,NNW,338,0.0,6.0,63,0.00,,,0.00,weatherlink.com 1.10,2013-03-03 06:37:00,
2013-03-03 01:52:00,41.9,30.0,30.05,NNE,15,0.0,8.0,64,0.00,,,0.00,weatherlink.com 1.10,2013-03-03 06:52:00,
2013-03-03 02:07:00,41.6,31.0,30.05,NNW,327,0.0,6.0,65,0.00,,,0.00,weatherlink.com 1.10,2013-03-03 07:07:00,
2013-03-03 02:22:00,41.5,31.0,30.05,NNW,338,0.0,2.0,67,0.00,,,0.00,weatherlink.com 1.10,2013-03-03 07:22:00,
2013-03-03 02:37:00,41.4,31.0,30.04,NE,34,3.0,7.0,66,0.00,,,0.00,weatherlink.com 1.10,2013-03-03 07:37:00,
2013-03-03 02:52:00,41.7,31.0,30.03,North,5,4.0,8.0,65,0.00,,,0.00,weatherlink.com 1.10,2013-03-03 07:52:00,
2013-03-03 03:07:00,41.8,31.0,30.03,NNW,334,0.0,9.0,66,0.00,,,0.00,weatherlink.com 1.10,2013-03-03 08:07:00,
2013-03-03 03:22:00,41.4,31.0,30.03,WNW,294,2.0,5.0,67,0.00,,,0.00,weatherlink.com 1.10,2013-03-03 08:22:00,
2013-03-03 03:37:00,40.9,31.0,30.04,West,277,0.0,8.0,68,0.00,,,0.00,weatherlink.com 1.10,2013-03-03 08:37:00,
2013-03-03 03:52:00,40.6,31.0,30.05,WNW,293,3.0,7.0,69,0.00,,,0.00,weatherlink.com 1.10,2013-03-03 08:52:00,
2013-03-03 04:07:00,39.8,31.0,30.05,West,269,0.0,5.0,70,0.00,,,0.00,weatherlink.com 1.10,2013-03-03 09:07:00,
2013-03-03 04:22:00,39.3,30.0,30.05,WSW,248,0.0,3.0,70,0.00,,,0.00,weatherlink.com 1.10,2013-03-03 09:22:00,
2013-03-03 04:37:00,38.9,30.0,30.04,NNW,336,0.0,6.0,71,0.00,,,0.00,weatherlink.com 1.10,2013-03-03 09:37:00,
2013-03-03 04:52:00,39.0,31.0,30.04,NW,311,1.0,4.0,72,0.00,,,0.00,weatherlink.com 1.10,2013-03-03 09:52:00,
2013-03-03 05:07:00,39.2,31.0,30.05,WNW,286,0.0,4.0,72,0.00,,,0.00,weatherlink.com 1.10,2013-03-03 10:07:00,
2013-03-03 05:22:00,39.0,31.0,30.05,WNW,288,2.0,6.0,72,0.00,,,0.00,weatherlink.com 1.10,2013-03-03 10:22:00,
2013-03-03 05:37:00,39.1,31.0,30.05,NW,309,0.0,8.0,72,0.00,,,0.00,weatherlink.com 1.10,2013-03-03 10:37:00,
2013-03-03 05:52:00,39.2,31.0,30.05,NNW,338,1.0,4.0,73,0.00,,,0.00,weatherlink.com 1.10,2013-03-03 10:52:00,
2013-03-03 06:07:00,39.6,32.0,30.05,WSW,251,2.0,8.0,74,0.00,,,0.00,weatherlink.com 1.10,2013-03-03 11:07:00,
2013-03-03 06:22:00,39.5,31.0,30.06,North,350,1.0,9.0,72,0.00,,,0.00,weatherlink.com 1.10,2013-03-03 11:22:00,
2013-03-03 06:37:00,39.5,31.0,30.06,West,281,0.0,11.0,72,0.00,,,0.00,weatherlink.com 1.10,2013-03-03 11:37:00,
2013-03-03 06:52:00,39.5,32.0,30.06,WNW,300,0.0,8.0,73,0.00,,,0.00,weatherlink.com 1.10,2013-03-03 11:52:00,
2013-03-03 07:07:00,39.6,32.0,30.07,NW,311,1.0,5.0,75,0.00,,,0.00,weatherlink.com 1.10,2013-03-03 12:07:00,
2013-03-03 07:22:00,39.8,32.0,30.07,NW,311,0.0,6.0,74,0.00,,,0.00,weatherlink.com 1.10,2013-03-03 12:22:00,
2013-03-03 07:37:00,40.0,32.0,30.08,West,264,0.0,7.0,73,0.00,,,0.00,weatherlink.com 1.10,2013-03-03 12:37:00,
2013-03-03 07:52:00,40.1,32.0,30.09,West,275,0.0,4.0,72,0.00,,,0.00,weatherlink.com 1.10,2013-03-03 12:52:00,
2013-03-03 08:07:00,40.5,31.0,30.09,NNW,333,0.0,7.0,70,0.00,,,0.00,weatherlink.com 1.10,2013-03-03 13:07:00,
2013-03-03 08:22:00,41.1,32.0,30.09,West,269,3.0,8.0,70,0.00,,,0.00,weatherlink.com 1.10,2013-03-03 13:22:00,
2013-03-03 08:37:00,41.8,33.0,30.08,SW,231,0.0,6.0,70,0.00,,,0.00,weatherlink.com 1.10,2013-03-03 13:37:00,
2013-03-03 08:52:00,42.9,31.0,30.09,North,10,0.0,6.0,64,0.00,,,0.00,weatherlink.com 1.10,2013-03-03 13:52:00,
2013-03-03 09:07:00,43.6,31.0,30.09,West,266,0.0,11.0,62,0.00,,,0.00,weatherlink.com 1.10,2013-03-03 14:07:00,
2013-03-03 09:22:00,43.8,32.0,30.09,North,5,0.0,7.0,63,0.00,,,0.00,weatherlink.com 1.10,2013-03-03 14:22:00,
2013-03-03 09:37:00,44.2,32.0,30.09,NNE,19,1.0,6.0,62,0.00,,,0.00,weatherlink.com 1.10,2013-03-03 14:37:00,
2013-03-03 09:52:00,44.7,30.0,30.09,North,5,0.0,11.0,57,0.00,,,0.00,weatherlink.com 1.10,2013-03-03 14:52:00,
2013-03-03 10:07:00,45.4,31.0,30.09,North,5,0.0,11.0,57,0.00,,,0.00,weatherlink.com 1.10,2013-03-03 15:07:00,
2013-03-03 10:22:00,46.6,31.0,30.09,WNW,291,2.0,12.0,55,0.00,,,0.00,weatherlink.com 1.10,2013-03-03 15:22:00,
2013-03-03 10:37:00,46.8,31.0,30.09,North,360,0.0,10.0,54,0.00,,,0.00,weatherlink.com 1.10,2013-03-03 15:37:00,
2013-03-03 10:52:00,47.2,30.0,30.09,WNW,285,2.0,16.0,52,0.00,,,0.00,weatherlink.com 1.10,2013-03-03 15:52:00,
2013-03-03 11:07:00,46.6,31.0,30.09,WSW,246,0.0,14.0,55,0.00,,,0.00,weatherlink.com 1.10,2013-03-03 16:07:00,
2013-03-03 11:22:00,47.2,32.0,30.09,North,355,0.0,14.0,55,0.00,,,0.00,weatherlink.com 1.10,2013-03-03 16:22:00,
2013-03-03 11:37:00,48.1,31.0,30.08,ENE,74,0.0,17.0,53,0.00,,,0.00,weatherlink.com 1.10,2013-03-03 16:37:00,
2013-03-03 11:52:00,47.5,30.0,30.08,West,270,11.0,15.0,52,0.00,,,0.00,weatherlink.com 1.10,2013-03-03 16:52:00,
2013-03-03 12:07:00,47.0,30.0,30.08,NW,312,1.0,20.0,52,0.00,,,0.00,weatherlink.com 1.10,2013-03-03 17:07:00,
2013-03-03 12:22:00,47.7,31.0,30.08,NNW,327,0.0,22.0,53,0.00,,,0.00,weatherlink.com 1.10,2013-03-03 17:22:00,
2013-03-03 12:37:00,47.8,32.0,30.07,WSW,256,3.0,22.0,54,0.00,,,0.00,weatherlink.com 1.10,2013-03-03 17:37:00,
2013-03-03 12:52:00,48.8,31.0,30.06,WNW,298,3.0,13.0,50,0.00,,,0.00,weatherlink.com 1.10,2013-03-03 17:52:00,
2013-03-03 13:07:00,48.8,31.0,30.05,NW,313,4.0,12.0,50,0.00,,,0.00,weatherlink.com 1.10,2013-03-03 18:07:00,
2013-03-03 13:23:00,48.8,30.0,30.05,West,281,8.0,19.0,49,0.00,,,0.00,weatherlink.com 1.10,2013-03-03 18:23:00,
2013-03-03 13:38:00,47.8,31.0,30.04,West,262,12.0,24.0,52,0.00,,,0.00,weatherlink.com 1.10,2013-03-03 18:38:00,
2013-03-03 13:53:00,48.0,31.0,30.04,West,276,12.0,20.0,53,0.00,,,0.00,weatherlink.com 1.10,2013-03-03 18:53:00,
2013-03-03 14:08:00,49.0,31.0,30.04,NNW,332,6.0,17.0,51,0.00,,,0.00,weatherlink.com 1.10,2013-03-03 19:08:00,
2013-03-03 14:38:00,48.7,31.0,30.04,West,279,4.0,19.0,50,0.00,,,0.00,weatherlink.com 1.10,2013-03-03 19:38:00,
2013-03-03 14:53:00,48.7,32.0,30.04,West,279,17.0,22.0,52,0.00,,,0.00,weatherlink.com 1.10,2013-03-03 19:53:00,
2013-03-03 15:08:00,48.8,34.0,30.04,West,265,21.0,25.0,56,0.00,,,0.00,weatherlink.com 1.10,2013-03-03 20:08:00,
2013-03-03 15:23:00,48.4,35.0,30.04,West,272,19.0,24.0,60,0.00,,,0.00,weatherlink.com 1.10,2013-03-03 20:23:00,
2013-03-03 15:38:00,48.9,31.0,30.04,West,265,23.0,26.0,51,0.00,,,0.00,weatherlink.com 1.10,2013-03-03 20:38:00,
2013-03-03 15:53:00,49.8,31.0,30.04,West,265,6.0,26.0,49,0.00,,,0.00,weatherlink.com 1.10,2013-03-03 20:53:00,
2013-03-03 16:08:00,49.5,32.0,30.04,WNW,296,8.0,19.0,52,0.00,,,0.00,weatherlink.com 1.10,2013-03-03 21:08:00,
2013-03-03 16:23:00,49.6,30.0,30.04,West,275,13.0,23.0,48,0.00,,,0.00,weatherlink.com 1.10,2013-03-03 21:23:00,
2013-03-03 16:38:00,49.4,31.0,30.04,West,262,10.0,17.0,50,0.00,,,0.00,weatherlink.com 1.10,2013-03-03 21:38:00,
2013-03-03 16:53:00,49.6,31.0,30.04,West,270,12.0,20.0,50,0.00,,,0.00,weatherlink.com 1.10,2013-03-03 21:53:00,
2013-03-03 17:08:00,48.9,31.0,30.04,WNW,286,12.0,19.0,50,0.00,,,0.00,weatherlink.com 1.10,2013-03-03 22:08:00,
2013-03-03 17:23:00,49.2,30.0,30.05,WNW,300,6.0,17.0,48,0.00,,,0.00,weatherlink.com 1.10,2013-03-03 22:23:00,
2013-03-03 17:38:00,49.0,31.0,30.05,West,271,12.0,17.0,51,0.00,,,0.00,weatherlink.com 1.10,2013-03-03 22:38:00,
2013-03-03 17:53:00,48.7,31.0,30.06,West,264,5.0,15.0,50,0.00,,,0.00,weatherlink.com 1.10,2013-03-03 22:53:00,
2013-03-03 18:08:00,48.5,31.0,30.06,WNW,301,0.0,13.0,52,0.00,,,0.00,weatherlink.com 1.10,2013-03-03 23:08:00,
2013-03-03 18:23:00,47.8,31.0,30.07,West,279,3.0,12.0,53,0.00,,,0.00,weatherlink.com 1.10,2013-03-03 23:23:00,
2013-03-03 18:38:00,47.6,34.0,30.08,West,265,9.0,14.0,59,0.00,,,0.00,weatherlink.com 1.10,2013-03-03 23:38:00,
2013-03-03 18:53:00,47.4,34.0,30.09,WSW,256,10.0,16.0,61,0.00,,,0.00,weatherlink.com 1.10,2013-03-03 23:53:00,
2013-03-03 19:08:00,46.6,33.0,30.10,West,259,11.0,16.0,60,0.00,,,0.00,weatherlink.com 1.10,2013-03-04 00:08:00,
2013-03-03 19:23:00,45.9,33.0,30.11,West,275,6.0,12.0,60,0.00,,,0.00,weatherlink.com 1.10,2013-03-04 00:23:00,
2013-03-03 19:38:00,45.6,32.0,30.11,WNW,290,6.0,12.0,59,0.00,,,0.00,weatherlink.com 1.10,2013-03-04 00:38:00,
2013-03-03 20:08:00,44.8,32.0,30.12,West,276,10.0,16.0,62,0.00,,,0.00,weatherlink.com 1.10,2013-03-04 01:08:00,
2013-03-03 20:23:00,44.5,32.0,30.13,West,271,7.0,14.0,63,0.00,,,0.00,weatherlink.com 1.10,2013-03-04 01:23:00,
2013-03-03 20:38:00,44.2,33.0,30.14,West,264,6.0,12.0,65,0.00,,,0.00,weatherlink.com 1.10,2013-03-04 01:38:00,
2013-03-03 20:53:00,44.0,33.0,30.14,WNW,284,10.0,11.0,66,0.00,,,0.00,weatherlink.com 1.10,2013-03-04 01:53:00,
2013-03-03 21:08:00,43.5,33.0,30.15,West,275,7.0,12.0,67,0.00,,,0.00,weatherlink.com 1.10,2013-03-04 02:08:00,
2013-03-03 21:23:00,42.9,33.0,30.16,West,278,5.0,9.0,68,0.00,,,0.00,weatherlink.com 1.10,2013-03-04 02:23:00,
2013-03-03 21:38:00,42.9,33.0,30.16,West,273,4.0,12.0,67,0.00,,,0.00,weatherlink.com 1.10,2013-03-04 02:38:00,
2013-03-03 21:53:00,42.5,33.0,30.17,WNW,283,3.0,6.0,69,0.00,,,0.00,weatherlink.com 1.10,2013-03-04 02:53:00,
2013-03-03 22:08:00,42.2,33.0,30.17,West,266,0.0,6.0,69,0.00,,,0.00,weatherlink.com 1.10,2013-03-04 03:08:00,
2013-03-03 22:23:00,41.9,32.0,30.18,West,271,1.0,5.0,69,0.00,,,0.00,weatherlink.com 1.10,2013-03-04 03:23:00,
2013-03-03 22:38:00,41.6,32.0,30.18,West,260,0.0,4.0,69,0.00,,,0.00,weatherlink.com 1.10,2013-03-04 03:38:00,
2013-03-03 22:53:00,41.2,32.0,30.18,West,273,0.0,3.0,70,0.00,,,0.00,weatherlink.com 1.10,2013-03-04 03:53:00,
2013-03-03 23:08:00,41.1,32.0,30.18,WNW,298,0.0,4.0,70,0.00,,,0.00,weatherlink.com 1.10,2013-03-04 04:08:00,
2013-03-03 23:23:00,40.8,32.0,30.18,West,272,4.0,5.0,71,0.00,,,0.00,weatherlink.com 1.10,2013-03-04 04:23:00,
2013-03-03 23:38:00,40.9,32.0,30.18,West,278,1.0,6.0,70,0.00,,,0.00,weatherlink.com 1.10,2013-03-04 04:38:00,
2013-03-03 23:53:00,40.8,32.0,30.18,NW,304,1.0,5.0,71,0.00,,,0.00,weatherlink.com 1.10,2013-03-04 04:53:00,